This is the latest recevied weather packets stored in our database for station/object OE9FWV-10. If no packets are shown the sender has not sent any weather packets the latest 1 day(s).
| Time | Temp. | Humidity | Pressure | Rain* | Wind** | Luminosity | Snow |
|---|---|---|---|---|---|---|---|
| 1778082201 | 25° C | 27% | 1012.4 hPa | - | - | - | - |
| 1778081301 | 25.56° C | 26% | 1012.6 hPa | - | - | - | - |
| 1778080401 | 26.11° C | 26% | 1012.6 hPa | - | - | - | - |
| 1778075000 | 27.22° C | 25% | 1009.9 hPa | - | - | - | - |
| 1778072300 | 26.67° C | 25% | 1009.5 hPa | - | - | - | - |
| 1778071400 | 26.67° C | 25% | 1009.4 hPa | - | - | - | - |
| 1778070500 | 26.11° C | 26% | 1009.5 hPa | - | - | - | - |
| 1778069600 | 25.56° C | 26% | 1009.5 hPa | - | - | - | - |
| 1778068700 | 25.56° C | 26% | 1009.8 hPa | - | - | - | - |
| 1778067800 | 25.56° C | 26% | 1009.9 hPa | - | - | - | - |
| 1778066900 | 25.56° C | 26% | 1009.7 hPa | - | - | - | - |
| 1778060599 | 25.56° C | 26% | 1010 hPa | - | - | - | - |
| 1778059699 | 25.56° C | 26% | 1010 hPa | - | - | - | - |
| 1778058799 | 25.56° C | 27% | 1010 hPa | - | - | - | - |
| 1778057899 | 25° C | 27% | 1010.1 hPa | - | - | - | - |
| 1778056999 | 25° C | 27% | 1010.2 hPa | - | - | - | - |
| 1778056099 | 25° C | 27% | 1009.9 hPa | - | - | - | - |
| 1778055199 | 25° C | 27% | 1010.3 hPa | - | - | - | - |
| 1778054299 | 24.44° C | 28% | 1010.3 hPa | - | - | - | - |
| 1778053399 | 24.44° C | 28% | 1010.3 hPa | - | - | - | - |
| 1778052499 | 24.44° C | 28% | 1010.2 hPa | - | - | - | - |
| 1778048898 | 24.44° C | 28% | 1010.3 hPa | - | - | - | - |
| 1778047998 | 24.44° C | 28% | 1010.4 hPa | - | - | - | - |
| 1778045298 | 24.44° C | 28% | 1010.5 hPa | - | - | - | - |
| 1778044398 | 24.44° C | 28% | 1010.5 hPa | - | - | - | - |
* Rain since midnight (hover to see other rain measurements)
** Current wind speed in m/s (hover to see current wind gust speed)